createdAt,value
2023-04-09T00:00:33.395Z,8.88
2023-04-09T00:02:10.721Z,8.77
2023-04-09T00:03:43.491Z,8.20
2023-04-09T00:05:16.332Z,8.63
2023-04-09T00:06:49.144Z,8.45
2023-04-09T00:08:20.964Z,8.65
2023-04-09T00:09:53.649Z,8.60
2023-04-09T00:11:26.773Z,8.70
2023-04-09T00:12:59.477Z,8.73
2023-04-09T00:14:31.269Z,8.70
2023-04-09T00:16:04.086Z,8.43
2023-04-09T00:17:38.161Z,8.68
2023-04-09T00:19:09.951Z,8.50
2023-04-09T00:20:42.654Z,8.93
2023-04-09T00:22:16.199Z,8.40
2023-04-09T00:23:49.087Z,8.55
2023-04-09T00:25:21.027Z,8.13
2023-04-09T00:26:54.330Z,8.52
2023-04-09T00:28:27.140Z,8.55
2023-04-09T00:29:59.841Z,8.55
2023-04-09T00:31:32.906Z,8.52
2023-04-09T00:33:07.049Z,8.63
2023-04-09T00:34:39.806Z,8.23
2023-04-09T00:36:12.518Z,8.57
2023-04-09T00:37:45.266Z,8.73
2023-04-09T00:39:17.953Z,8.88
2023-04-09T00:40:51.549Z,8.52
2023-04-09T00:42:24.257Z,8.40
2023-04-09T00:43:57.938Z,8.38
2023-04-09T00:45:30.858Z,9.10
2023-04-09T00:47:03.707Z,8.32
2023-04-09T00:48:37.749Z,8.70
2023-04-09T00:50:11.567Z,8.88
2023-04-09T00:51:45.953Z,8.38
2023-04-09T00:53:18.502Z,8.20
2023-04-09T00:54:51.974Z,8.70
2023-04-09T00:56:25.488Z,9.00
2023-04-09T00:57:58.265Z,9.30
2023-04-09T00:59:31.483Z,8.73
2023-04-09T01:01:04.271Z,8.85
2023-04-09T01:02:37.242Z,8.68
2023-04-09T01:04:11.764Z,9.60
2023-04-09T01:05:52.184Z,9.25
2023-04-09T01:07:34.951Z,8.35
2023-04-09T01:09:15.472Z,8.95
2023-04-09T01:10:54.550Z,8.38
2023-04-09T01:12:33.949Z,9.38
2023-04-09T01:14:15.868Z,8.48
2023-04-09T01:15:51.767Z,8.52
2023-04-09T01:17:31.629Z,8.90
2023-04-09T01:19:20.046Z,8.32
2023-04-09T01:20:59.011Z,9.23
2023-04-09T01:22:41.774Z,8.80
2023-04-09T01:24:27.424Z,9.35
2023-04-09T01:26:08.149Z,9.23
2023-04-09T01:27:47.905Z,9.52
2023-04-09T01:29:23.812Z,9.43
2023-04-09T01:31:02.534Z,9.48
2023-04-09T01:32:38.075Z,9.40
2023-04-09T01:34:12.506Z,9.70
2023-04-09T01:35:47.329Z,9.38
2023-04-09T01:37:21.319Z,9.30
2023-04-09T01:38:56.427Z,9.75
2023-04-09T01:40:29.171Z,8.73
2023-04-09T01:42:03.791Z,9.70
2023-04-09T01:43:37.825Z,9.38
2023-04-09T01:45:13.276Z,8.98
2023-04-09T01:46:47.514Z,9.25
2023-04-09T01:48:21.892Z,9.63
2023-04-09T01:49:55.634Z,9.85
2023-04-09T01:51:28.467Z,9.55
2023-04-09T01:53:02.276Z,9.23
2023-04-09T01:54:35.087Z,9.00
2023-04-09T01:56:08.492Z,9.27
2023-04-09T01:57:41.235Z,9.02
2023-04-09T01:59:14.067Z,8.70
2023-04-09T02:00:49.512Z,9.23
2023-04-09T02:02:29.580Z,8.82
2023-04-09T02:04:06.064Z,8.57
2023-04-09T02:05:42.920Z,9.27
2023-04-09T02:07:24.011Z,8.70
2023-04-09T02:09:00.289Z,9.30
2023-04-09T02:10:35.835Z,9.32
2023-04-09T02:12:13.744Z,9.82
2023-04-09T02:13:47.035Z,9.77
2023-04-09T02:15:21.001Z,9.52
2023-04-09T02:16:55.565Z,10.10
2023-04-09T02:18:29.812Z,9.38
2023-04-09T02:20:02.575Z,9.55
2023-04-09T02:21:35.445Z,9.65
2023-04-09T02:23:08.138Z,9.25
2023-04-09T02:24:41.502Z,9.15
2023-04-09T02:26:14.249Z,9.20
2023-04-09T02:27:47.043Z,9.30
2023-04-09T02:29:18.948Z,9.82
2023-04-09T02:30:51.731Z,8.60
2023-04-09T02:32:26.542Z,9.32
2023-04-09T02:33:58.350Z,9.52
2023-04-09T02:35:31.085Z,9.38
2023-04-09T02:37:03.956Z,9.05
2023-04-09T02:38:36.662Z,9.20
2023-04-09T02:40:10.570Z,9.45
2023-04-09T02:41:44.008Z,9.27
2023-04-09T02:43:16.726Z,10.13
2023-04-09T02:44:49.430Z,9.85
2023-04-09T02:46:21.202Z,9.68
2023-04-09T02:47:55.285Z,9.65
2023-04-09T02:49:28.068Z,9.98
2023-04-09T02:51:00.763Z,9.52
2023-04-09T02:52:33.467Z,9.55
2023-04-09T02:54:06.235Z,9.63
2023-04-09T02:55:38.915Z,9.90
2023-04-09T02:57:11.617Z,10.15
2023-04-09T02:58:44.307Z,9.23
2023-04-09T03:00:17.028Z,9.82
2023-04-09T03:01:49.826Z,9.50
2023-04-09T03:03:23.990Z,10.02
2023-04-09T03:04:56.755Z,9.90
2023-04-09T03:06:28.681Z,10.15
2023-04-09T03:08:02.615Z,10.07
2023-04-09T03:09:35.300Z,10.35
2023-04-09T03:11:08.030Z,11.18
2023-04-09T03:12:40.744Z,10.25
2023-04-09T03:14:13.447Z,10.23
2023-04-09T03:15:46.177Z,10.07
2023-04-09T03:17:18.873Z,9.68
2023-04-09T03:18:53.142Z,10.13
2023-04-09T03:20:26.175Z,11.05
2023-04-09T03:21:58.921Z,9.82
2023-04-09T03:23:34.839Z,10.20
2023-04-09T03:25:08.124Z,10.18
2023-04-09T03:26:40.805Z,10.32
2023-04-09T03:28:12.654Z,10.55
2023-04-09T03:29:45.345Z,10.75
2023-04-09T03:31:18.061Z,10.32
2023-04-09T03:32:50.846Z,11.55
2023-04-09T03:34:25.427Z,10.05
2023-04-09T03:35:58.135Z,10.07
2023-04-09T03:37:30.837Z,10.77
2023-04-09T03:39:03.544Z,10.60
2023-04-09T03:40:36.423Z,10.38
2023-04-09T03:42:09.116Z,10.52
2023-04-09T03:43:41.035Z,11.07
2023-04-09T03:45:13.733Z,10.93
2023-04-09T03:46:46.456Z,11.13
2023-04-09T03:48:19.147Z,11.38
2023-04-09T03:49:53.225Z,10.57
2023-04-09T03:51:24.990Z,11.57
2023-04-09T03:52:57.678Z,11.13
2023-04-09T03:54:30.978Z,11.48
2023-04-09T03:56:03.881Z,11.73
2023-04-09T03:57:36.571Z,11.70
2023-04-09T03:59:09.345Z,11.05
2023-04-09T04:00:43.240Z,11.50
2023-04-09T04:02:16.251Z,11.27
2023-04-09T04:03:49.078Z,11.15
2023-04-09T04:05:26.060Z,12.15
2023-04-09T04:06:58.745Z,12.75
2023-04-09T04:08:31.522Z,11.60
2023-04-09T04:10:05.563Z,12.35
2023-04-09T04:11:38.253Z,12.10
2023-04-09T04:13:11.060Z,11.38
2023-04-09T04:14:43.794Z,12.43
2023-04-09T04:16:16.499Z,12.18
2023-04-09T04:17:49.267Z,11.43
2023-04-09T04:19:21.072Z,12.25
2023-04-09T04:20:55.121Z,12.07
2023-04-09T04:22:27.836Z,11.70
2023-04-09T04:24:00.936Z,12.82
2023-04-09T04:25:33.632Z,12.30
2023-04-09T04:27:06.774Z,12.60
2023-04-09T04:28:40.282Z,12.98
2023-04-09T04:30:13.041Z,13.40
2023-04-09T04:31:45.912Z,12.10
2023-04-09T04:33:18.674Z,12.40
2023-04-09T04:34:51.527Z,12.70
2023-04-09T04:36:26.074Z,12.15
2023-04-09T04:37:58.783Z,13.40
2023-04-09T04:39:32.105Z,13.35
2023-04-09T04:41:05.287Z,12.73
2023-04-09T04:42:37.963Z,12.55
2023-04-09T04:44:10.693Z,13.05
2023-04-09T04:45:43.401Z,13.10
2023-04-09T04:47:16.199Z,13.30
2023-04-09T04:48:48.872Z,13.35
2023-04-09T04:50:21.567Z,13.88
2023-04-09T04:51:55.603Z,13.27
2023-04-09T04:53:28.640Z,12.93
2023-04-09T04:55:01.356Z,13.40
2023-04-09T04:56:34.046Z,13.00
2023-04-09T04:58:06.778Z,12.65
2023-04-09T04:59:40.567Z,13.23
2023-04-09T05:01:13.283Z,13.10
2023-04-09T05:02:46.206Z,13.07
2023-04-09T05:04:19.016Z,12.80
2023-04-09T05:05:51.709Z,12.43
2023-04-09T05:07:25.867Z,12.88
2023-04-09T05:08:58.705Z,13.07
2023-04-09T05:10:31.524Z,12.63
2023-04-09T05:12:04.281Z,12.93
2023-04-09T05:13:36.962Z,12.77
2023-04-09T05:15:10.097Z,13.68
2023-04-09T05:16:42.861Z,13.23
2023-04-09T05:18:15.648Z,12.25
2023-04-09T05:19:52.291Z,13.23
2023-04-09T05:21:25.755Z,12.55
2023-04-09T05:22:59.782Z,12.93
2023-04-09T05:24:32.516Z,13.50
2023-04-09T05:26:05.463Z,13.57
2023-04-09T05:27:38.153Z,12.55
2023-04-09T05:29:10.818Z,13.10
2023-04-09T05:30:47.520Z,13.38
2023-04-09T05:32:20.275Z,13.10
2023-04-09T05:33:53.445Z,13.57
2023-04-09T05:35:26.284Z,14.65
2023-04-09T05:36:58.963Z,13.18
2023-04-09T05:38:32.985Z,14.20
2023-04-09T05:40:06.743Z,13.90
2023-04-09T05:41:39.435Z,13.07
2023-04-09T05:43:12.180Z,13.50
2023-04-09T05:44:44.883Z,13.93
2023-04-09T05:46:17.619Z,13.80
2023-04-09T05:47:50.747Z,13.95
2023-04-09T05:49:23.638Z,14.10
2023-04-09T05:50:56.546Z,13.75
2023-04-09T05:52:29.873Z,13.65
2023-04-09T05:54:04.161Z,14.45
2023-04-09T05:55:36.902Z,13.50
2023-04-09T05:57:09.603Z,14.63
2023-04-09T05:58:42.472Z,13.48
2023-04-09T06:00:15.724Z,13.13
2023-04-09T06:01:48.440Z,14.30
2023-04-09T06:03:21.363Z,14.05
2023-04-09T06:04:54.313Z,14.35
2023-04-09T06:06:27.233Z,13.07
2023-04-09T06:07:59.904Z,14.00
2023-04-09T06:09:33.925Z,13.65
2023-04-09T06:11:10.297Z,13.77
2023-04-09T06:12:43.101Z,14.65
2023-04-09T06:14:17.935Z,13.88
2023-04-09T06:15:51.048Z,13.88
2023-04-09T06:17:23.772Z,13.93
2023-04-09T06:18:56.918Z,14.38
2023-04-09T06:20:29.634Z,14.65
2023-04-09T06:22:02.333Z,14.05
2023-04-09T06:23:36.461Z,14.07
2023-04-09T06:25:10.865Z,14.05
2023-04-09T06:26:43.620Z,14.23
2023-04-09T06:28:16.369Z,13.95
2023-04-09T06:29:49.087Z,14.02
2023-04-09T06:31:21.864Z,14.30
2023-04-09T06:32:55.498Z,14.40
2023-04-09T06:34:28.385Z,14.93
2023-04-09T06:36:01.350Z,14.68
2023-04-09T06:37:34.137Z,14.82
2023-04-09T06:39:07.142Z,14.80
2023-04-09T06:40:41.335Z,15.05
2023-04-09T06:42:14.035Z,14.48
2023-04-09T06:43:46.909Z,15.02
2023-04-09T06:45:19.601Z,14.63
2023-04-09T06:46:52.352Z,14.57
2023-04-09T06:48:25.229Z,14.68
2023-04-09T06:49:57.910Z,15.15
2023-04-09T06:51:30.610Z,14.65
2023-04-09T06:53:03.485Z,15.30
2023-04-09T06:54:36.270Z,15.18
2023-04-09T06:56:10.504Z,14.85
2023-04-09T06:57:43.256Z,14.30
2023-04-09T06:59:16.196Z,14.98
2023-04-09T07:00:48.994Z,15.23
2023-04-09T07:02:21.900Z,14.50
2023-04-09T07:03:54.791Z,14.98
2023-04-09T07:05:27.646Z,15.05
2023-04-09T07:07:00.641Z,15.25
2023-04-09T07:08:33.370Z,15.30
2023-04-09T07:10:07.195Z,15.68
2023-04-09T07:11:41.234Z,15.68
2023-04-09T07:13:13.982Z,15.25
2023-04-09T07:14:46.662Z,15.27
2023-04-09T07:16:19.400Z,14.82
2023-04-09T07:17:52.164Z,16.55
2023-04-09T07:19:24.915Z,15.43
2023-04-09T07:20:57.710Z,15.85
2023-04-09T07:22:31.191Z,15.82
2023-04-09T07:24:03.997Z,15.15
2023-04-09T07:25:36.678Z,16.13
2023-04-09T07:27:10.763Z,15.52
2023-04-09T07:28:43.469Z,15.23
2023-04-09T07:30:16.221Z,15.77
2023-04-09T07:31:49.062Z,16.02
2023-04-09T07:33:21.812Z,16.00
2023-04-09T07:34:54.710Z,15.70
2023-04-09T07:36:27.921Z,15.95
2023-04-09T07:38:00.689Z,15.95
2023-04-09T07:39:33.375Z,16.40
2023-04-09T07:41:06.216Z,16.85
2023-04-09T07:42:40.761Z,15.80
2023-04-09T07:44:13.648Z,16.75
2023-04-09T07:45:46.364Z,15.82
2023-04-09T07:47:19.069Z,16.80
2023-04-09T07:48:52.008Z,16.45
2023-04-09T07:50:25.407Z,17.10
2023-04-09T07:51:57.336Z,16.65
2023-04-09T07:53:30.037Z,15.57
2023-04-09T07:55:02.792Z,15.63
2023-04-09T07:56:35.514Z,15.90
2023-04-09T07:58:09.568Z,16.48
2023-04-09T07:59:42.381Z,16.27
2023-04-09T08:01:15.221Z,17.05
2023-04-09T08:02:48.090Z,16.47
2023-04-09T08:04:21.283Z,17.07
2023-04-09T08:05:54.058Z,16.53
2023-04-09T08:07:26.787Z,16.37
2023-04-09T08:08:59.535Z,16.30
2023-04-09T08:10:32.206Z,16.37
2023-04-09T08:12:05.226Z,16.27
2023-04-09T08:13:39.273Z,17.60
2023-04-09T08:15:12.313Z,16.07
2023-04-09T08:16:47.127Z,16.97
2023-04-09T08:18:20.090Z,15.97
2023-04-09T08:19:52.939Z,16.07
2023-04-09T08:21:26.656Z,16.27
2023-04-09T08:22:59.408Z,15.43
2023-04-09T08:24:32.349Z,16.33
2023-04-09T08:26:05.185Z,16.47
2023-04-09T08:27:39.570Z,16.07
2023-04-09T08:29:14.413Z,16.27
2023-04-09T08:30:47.642Z,15.60
2023-04-09T08:32:20.474Z,16.17
2023-04-09T08:33:53.477Z,15.37
2023-04-09T08:35:26.212Z,16.30
2023-04-09T08:36:58.928Z,15.40
2023-04-09T08:38:31.823Z,15.77
2023-04-09T08:40:04.949Z,15.90
2023-04-09T08:41:42.791Z,16.10
2023-04-09T08:43:17.426Z,15.33
2023-04-09T08:44:51.527Z,15.50
2023-04-09T08:46:25.990Z,16.00
2023-04-09T08:47:59.836Z,15.90
2023-04-09T08:49:32.658Z,15.33
2023-04-09T08:51:06.735Z,15.47
2023-04-09T08:52:39.978Z,15.13
2023-04-09T08:54:16.447Z,15.63
2023-04-09T08:55:49.489Z,14.07
2023-04-09T08:57:22.178Z,15.73
2023-04-09T08:58:55.743Z,15.07
2023-04-09T09:00:29.977Z,16.27
2023-04-09T09:02:09.108Z,15.60
2023-04-09T09:03:55.420Z,15.63
2023-04-09T09:05:37.195Z,15.73
2023-04-09T09:07:09.904Z,14.93
2023-04-09T09:08:42.579Z,14.33
2023-04-09T09:10:15.637Z,13.80
2023-04-09T09:11:50.276Z,14.20
2023-04-09T09:13:24.785Z,13.97
2023-04-09T09:14:57.473Z,14.70
2023-04-09T09:16:33.165Z,14.57
2023-04-09T09:18:07.127Z,14.03
2023-04-09T09:19:39.940Z,12.70
2023-04-09T09:21:13.438Z,14.17
2023-04-09T09:22:55.001Z,14.40
2023-04-09T09:24:28.728Z,15.00
2023-04-09T09:26:11.580Z,14.00
2023-04-09T09:27:44.559Z,14.93
2023-04-09T09:29:17.297Z,14.70
2023-04-09T09:30:50.437Z,14.50
2023-04-09T09:32:25.234Z,14.30
2023-04-09T09:33:58.051Z,14.37
2023-04-09T09:35:30.936Z,14.57
2023-04-09T09:37:03.646Z,13.77
2023-04-09T09:38:52.125Z,13.00
2023-04-09T09:40:28.639Z,13.80
2023-04-09T09:42:08.757Z,13.20
2023-04-09T09:43:42.585Z,13.43
2023-04-09T09:45:19.199Z,13.97
2023-04-09T09:46:52.027Z,14.50
2023-04-09T09:48:28.310Z,14.33
2023-04-09T09:50:01.193Z,13.80
2023-04-09T09:51:37.581Z,13.83
2023-04-09T09:53:11.947Z,14.33
2023-04-09T09:54:49.099Z,13.83
2023-04-09T09:56:24.660Z,13.73
2023-04-09T09:57:59.477Z,14.17
2023-04-09T09:59:35.388Z,12.90
2023-04-09T10:01:11.186Z,12.23
2023-04-09T10:02:49.002Z,12.07
2023-04-09T10:04:27.359Z,12.50
2023-04-09T10:06:02.400Z,12.10
2023-04-09T10:07:36.429Z,10.87
2023-04-09T10:09:09.478Z,11.87
2023-04-09T10:10:43.231Z,12.07
2023-04-09T10:12:16.682Z,11.73
2023-04-09T10:13:53.757Z,12.10
2023-04-09T10:15:29.432Z,11.77
2023-04-09T10:17:03.889Z,11.53
2023-04-09T10:18:37.419Z,11.20
2023-04-09T10:20:17.752Z,11.03
2023-04-09T10:21:57.750Z,11.73
2023-04-09T10:23:37.142Z,11.17
2023-04-09T10:25:11.053Z,10.73
2023-04-09T10:26:45.968Z,9.93
2023-04-09T10:28:19.643Z,9.63
2023-04-09T10:29:52.890Z,10.67
2023-04-09T10:31:25.883Z,11.07
2023-04-09T10:33:10.094Z,12.00
2023-04-09T10:34:44.982Z,10.63
2023-04-09T10:36:22.185Z,16.13
2023-04-09T10:37:54.967Z,12.70
2023-04-09T10:39:29.695Z,10.37
2023-04-09T10:41:13.885Z,11.93
2023-04-09T10:42:48.327Z,10.97
2023-04-09T10:44:21.893Z,10.20
2023-04-09T10:45:58.974Z,10.40
2023-04-09T10:47:36.616Z,9.83
2023-04-09T10:49:11.274Z,10.20
2023-04-09T10:50:46.232Z,9.23
2023-04-09T10:52:31.229Z,9.80
2023-04-09T10:54:04.067Z,9.00
2023-04-09T10:55:38.766Z,8.80
2023-04-09T10:57:13.493Z,10.70
2023-04-09T10:58:46.281Z,9.70
2023-04-09T11:00:18.996Z,9.80
2023-04-09T11:01:54.342Z,9.37
2023-04-09T11:03:29.049Z,9.07
2023-04-09T11:05:08.261Z,9.33
2023-04-09T11:06:43.370Z,9.10
2023-04-09T11:08:18.021Z,8.43
2023-04-09T11:09:50.997Z,9.10
2023-04-09T11:11:27.366Z,9.20
2023-04-09T11:13:00.480Z,8.80
2023-04-09T11:14:34.673Z,9.00
2023-04-09T11:16:07.621Z,9.77
2023-04-09T11:17:39.567Z,9.40
2023-04-09T11:19:12.304Z,9.57
2023-04-09T11:20:45.053Z,8.80
2023-04-09T11:22:17.908Z,8.93
2023-04-09T11:23:54.179Z,8.40
2023-04-09T11:25:28.580Z,8.90
2023-04-09T11:27:02.739Z,7.43
2023-04-09T11:28:35.971Z,7.87
2023-04-09T11:30:09.802Z,8.23
2023-04-09T11:31:46.136Z,9.73
2023-04-09T11:33:20.266Z,8.50
2023-04-09T11:34:53.810Z,7.90
2023-04-09T11:36:28.235Z,8.40
2023-04-09T11:38:00.969Z,6.93
2023-04-09T11:39:37.712Z,7.10
2023-04-09T11:41:13.393Z,7.13
2023-04-09T11:42:46.706Z,5.30
2023-04-09T11:44:19.409Z,6.20
2023-04-09T11:45:53.114Z,6.30
2023-04-09T11:47:26.150Z,6.20
2023-04-09T11:48:59.078Z,6.93
2023-04-09T11:50:32.731Z,7.17
2023-04-09T11:52:05.999Z,6.80
2023-04-09T11:53:38.824Z,6.60
2023-04-09T11:55:13.654Z,6.67
2023-04-09T11:56:46.334Z,7.10
2023-04-09T11:58:19.202Z,7.97
2023-04-09T11:59:52.019Z,6.83
2023-04-09T12:01:24.907Z,7.10
2023-04-09T12:03:03.163Z,7.60
2023-04-09T12:04:36.424Z,6.67
2023-04-09T12:06:09.446Z,6.43
2023-04-09T12:07:55.655Z,6.83
2023-04-09T12:09:29.289Z,7.40
2023-04-09T12:11:11.277Z,6.93
2023-04-09T12:12:46.383Z,7.70
2023-04-09T12:14:22.118Z,7.93
2023-04-09T12:15:57.470Z,8.13
2023-04-09T12:17:34.192Z,8.67
2023-04-09T12:19:08.424Z,8.10
2023-04-09T12:20:43.916Z,8.23
2023-04-09T12:22:16.602Z,7.70
2023-04-09T12:23:49.294Z,8.47
2023-04-09T12:25:21.992Z,7.63
2023-04-09T12:26:57.103Z,7.90
2023-04-09T12:28:30.349Z,8.20
2023-04-09T12:30:03.052Z,7.90
2023-04-09T12:31:36.014Z,7.80
2023-04-09T12:33:10.999Z,8.40
2023-04-09T12:34:44.120Z,8.50
2023-04-09T12:36:16.813Z,8.63
2023-04-09T12:37:49.831Z,8.70
2023-04-09T12:39:22.530Z,9.20
2023-04-09T12:40:55.339Z,10.53
2023-04-09T12:42:28.440Z,8.93
2023-04-09T12:44:01.133Z,9.17
2023-04-09T12:45:34.180Z,7.83
2023-04-09T12:47:07.786Z,9.03
2023-04-09T12:48:40.780Z,8.33
2023-04-09T12:50:14.754Z,8.20
2023-04-09T12:51:47.473Z,8.50
2023-04-09T12:53:20.431Z,8.97
2023-04-09T12:54:53.565Z,8.97
2023-04-09T12:56:26.992Z,8.17
2023-04-09T12:58:02.476Z,8.47
2023-04-09T12:59:34.251Z,8.57
2023-04-09T13:01:07.504Z,7.97
2023-04-09T13:02:40.656Z,7.67
2023-04-09T13:04:13.640Z,7.83
2023-04-09T13:05:47.126Z,7.93
2023-04-09T13:07:20.646Z,8.10
2023-04-09T13:08:53.364Z,8.27
2023-04-09T13:10:26.267Z,8.03
2023-04-09T13:11:58.952Z,8.53
2023-04-09T13:13:33.478Z,7.90
2023-04-09T13:15:07.533Z,7.67
2023-04-09T13:16:40.402Z,8.47
2023-04-09T13:18:14.403Z,8.13
2023-04-09T13:19:47.170Z,7.80
2023-04-09T13:21:19.868Z,7.70
2023-04-09T13:22:52.654Z,8.00
2023-04-09T13:24:25.852Z,8.40
2023-04-09T13:25:59.615Z,8.30
2023-04-09T13:27:32.443Z,7.70
2023-04-09T13:29:06.480Z,7.80
2023-04-09T13:30:39.262Z,7.23
2023-04-09T13:32:11.990Z,7.67
2023-04-09T13:33:44.720Z,7.50
2023-04-09T13:35:19.001Z,7.70
2023-04-09T13:36:52.091Z,7.30
2023-04-09T13:38:24.954Z,7.83
2023-04-09T13:39:57.712Z,7.77
2023-04-09T13:41:31.865Z,7.27
2023-04-09T13:43:04.686Z,7.50
2023-04-09T13:44:40.565Z,7.77
2023-04-09T13:46:13.338Z,7.60
2023-04-09T13:47:46.027Z,7.50
2023-04-09T13:49:18.864Z,8.07
2023-04-09T13:50:51.700Z,7.87
2023-04-09T13:52:29.295Z,7.43
2023-04-09T13:54:03.909Z,7.83
2023-04-09T13:55:39.441Z,7.20
2023-04-09T13:57:12.305Z,7.33
2023-04-09T13:58:44.186Z,8.27
2023-04-09T14:00:19.802Z,8.50
2023-04-09T14:01:52.719Z,7.60
2023-04-09T14:03:25.976Z,8.00
2023-04-09T14:04:59.589Z,7.60
2023-04-09T14:06:32.327Z,6.93
2023-04-09T14:08:05.312Z,7.30
2023-04-09T14:09:38.326Z,7.13
2023-04-09T14:11:13.928Z,7.80
2023-04-09T14:12:46.675Z,8.40
2023-04-09T14:14:19.854Z,7.53
2023-04-09T14:15:53.995Z,7.53
2023-04-09T14:17:27.190Z,7.00
2023-04-09T14:18:59.991Z,7.37
2023-04-09T14:20:32.827Z,7.30
2023-04-09T14:22:07.118Z,7.33
2023-04-09T14:23:40.465Z,6.73
2023-04-09T14:25:13.483Z,7.07
2023-04-09T14:26:46.539Z,6.53
2023-04-09T14:28:19.230Z,6.33
2023-04-09T14:29:52.467Z,7.00
2023-04-09T14:31:26.579Z,7.10
2023-04-09T14:32:59.770Z,7.10
2023-04-09T14:34:32.533Z,7.00
2023-04-09T14:36:06.113Z,6.70
2023-04-09T14:37:40.759Z,6.70
2023-04-09T14:39:13.525Z,6.87
2023-04-09T14:40:46.284Z,7.60
2023-04-09T14:42:19.065Z,6.80
2023-04-09T14:43:51.787Z,7.37
2023-04-09T14:45:24.726Z,6.97
2023-04-09T14:46:59.837Z,6.90
2023-04-09T14:48:32.800Z,7.10
2023-04-09T14:50:06.071Z,7.03
2023-04-09T14:51:38.785Z,6.63
2023-04-09T14:53:12.334Z,6.90
2023-04-09T14:54:45.287Z,7.23
2023-04-09T14:56:17.987Z,7.67
2023-04-09T14:57:50.813Z,7.30
2023-04-09T14:59:23.497Z,7.53
2023-04-09T15:00:56.596Z,7.27
2023-04-09T15:02:30.819Z,7.23
2023-04-09T15:04:03.771Z,6.50
2023-04-09T15:05:36.595Z,6.50
2023-04-09T15:07:09.330Z,6.23
2023-04-09T15:08:42.025Z,6.37
2023-04-09T15:10:15.361Z,6.60
2023-04-09T15:11:48.034Z,6.57
2023-04-09T15:13:20.716Z,6.50
2023-04-09T15:14:53.509Z,6.20
2023-04-09T15:16:28.237Z,5.97
2023-04-09T15:18:05.684Z,5.97
2023-04-09T15:19:38.688Z,6.67
2023-04-09T15:21:11.362Z,5.90
2023-04-09T15:22:44.052Z,6.20
2023-04-09T15:24:16.772Z,6.13
2023-04-09T15:25:49.490Z,6.33
2023-04-09T15:27:22.286Z,6.67
2023-04-09T15:29:02.185Z,5.90
2023-04-09T15:30:35.315Z,6.17
2023-04-09T15:32:08.109Z,6.33
2023-04-09T15:33:43.632Z,6.30
2023-04-09T15:35:23.256Z,6.83
2023-04-09T15:36:55.964Z,6.33
2023-04-09T15:38:28.678Z,5.97
2023-04-09T15:40:01.509Z,5.97
2023-04-09T15:41:34.261Z,6.63
2023-04-09T15:43:06.940Z,6.30
2023-04-09T15:44:39.948Z,6.40
2023-04-09T15:46:13.068Z,6.30
2023-04-09T15:47:46.418Z,6.43
2023-04-09T15:49:20.992Z,6.30
2023-04-09T15:50:53.685Z,6.27
2023-04-09T15:52:26.928Z,6.33
2023-04-09T15:53:59.704Z,5.83
2023-04-09T15:55:32.995Z,5.57
2023-04-09T15:57:05.744Z,5.80
2023-04-09T15:58:38.435Z,5.80
2023-04-09T16:00:12.020Z,5.67
2023-04-09T16:01:44.848Z,5.80
2023-04-09T16:03:17.619Z,5.77
2023-04-09T16:04:51.625Z,5.47
2023-04-09T16:06:24.361Z,5.97
2023-04-09T16:07:59.147Z,6.63
2023-04-09T16:09:32.600Z,6.30
2023-04-09T16:11:06.767Z,6.13
2023-04-09T16:12:39.454Z,6.00
2023-04-09T16:14:12.382Z,6.17
2023-04-09T16:15:46.625Z,5.67
2023-04-09T16:17:19.328Z,6.30
2023-04-09T16:18:52.552Z,6.00
2023-04-09T16:20:26.879Z,5.77
2023-04-09T16:21:59.561Z,5.43
2023-04-09T16:23:32.915Z,5.60
2023-04-09T16:25:06.314Z,5.60
2023-04-09T16:26:39.713Z,6.13
2023-04-09T16:28:14.095Z,6.10
2023-04-09T16:29:47.100Z,6.03
2023-04-09T16:31:19.844Z,6.07
2023-04-09T16:32:52.592Z,6.20
2023-04-09T16:34:25.656Z,5.30
2023-04-09T16:35:59.794Z,5.47
2023-04-09T16:37:32.501Z,5.63
2023-04-09T16:39:05.587Z,5.93
2023-04-09T16:40:38.304Z,5.77
2023-04-09T16:42:12.030Z,13.40
2023-04-09T16:43:46.515Z,6.10
2023-04-09T16:45:19.258Z,6.43
2023-04-09T16:46:52.203Z,6.63
2023-04-09T16:48:24.970Z,5.30
2023-04-09T16:49:57.648Z,5.57
2023-04-09T16:51:31.716Z,5.93
2023-04-09T16:53:04.776Z,5.47
2023-04-09T16:54:37.463Z,5.67
2023-04-09T16:56:10.649Z,6.10
2023-04-09T16:57:43.691Z,5.40
2023-04-09T16:59:17.563Z,5.47
2023-04-09T17:00:51.949Z,5.73
2023-04-09T17:02:27.149Z,5.50
2023-04-09T17:04:01.916Z,5.50
2023-04-09T17:05:34.692Z,5.53
2023-04-09T17:07:08.761Z,5.63
2023-04-09T17:08:42.082Z,5.17
2023-04-09T17:10:15.363Z,5.70
2023-04-09T17:11:48.842Z,5.93
2023-04-09T17:13:21.624Z,4.87
2023-04-09T17:14:54.552Z,5.30
2023-04-09T17:16:27.700Z,5.90
2023-04-09T17:18:00.584Z,5.60
2023-04-09T17:19:34.014Z,5.57
2023-04-09T17:21:07.420Z,4.93
2023-04-09T17:22:42.588Z,5.67
2023-04-09T17:24:15.342Z,6.73
2023-04-09T17:25:48.437Z,5.60
2023-04-09T17:27:21.166Z,5.70
2023-04-09T17:28:54.133Z,7.33
2023-04-09T17:30:27.453Z,9.07
2023-04-09T17:32:00.135Z,6.50
2023-04-09T17:33:32.819Z,8.80
2023-04-09T17:35:07.366Z,7.97
2023-04-09T17:36:41.275Z,7.07
2023-04-09T17:38:20.974Z,6.87
2023-04-09T17:39:53.810Z,6.13
2023-04-09T17:41:27.693Z,5.90
2023-04-09T17:43:00.976Z,6.53
2023-04-09T17:44:35.328Z,6.50
2023-04-09T17:46:08.685Z,5.07
2023-04-09T17:47:41.870Z,6.30
2023-04-09T17:49:14.623Z,5.57
2023-04-09T17:50:47.465Z,5.80
2023-04-09T17:52:20.456Z,5.93
2023-04-09T17:53:55.953Z,5.90
2023-04-09T17:55:28.641Z,5.57
2023-04-09T17:57:02.377Z,5.17
2023-04-09T17:58:35.138Z,5.47
2023-04-09T18:00:09.033Z,5.87
2023-04-09T18:01:41.885Z,11.03
2023-04-09T18:03:15.598Z,10.07
2023-04-09T18:04:48.820Z,10.17
2023-04-09T18:06:21.703Z,10.07
2023-04-09T18:07:56.262Z,10.90
2023-04-09T18:09:30.346Z,6.97
2023-04-09T18:12:39.222Z,21.70
2023-04-09T18:14:12.011Z,9.50
2023-04-09T18:15:44.705Z,11.53
2023-04-09T18:17:17.995Z,11.67
2023-04-09T18:18:50.919Z,7.00
2023-04-09T18:20:23.747Z,5.90
2023-04-09T18:21:56.446Z,6.17
2023-04-09T18:23:29.184Z,7.03
2023-04-09T18:25:03.264Z,7.27
2023-04-09T18:26:36.605Z,6.53
2023-04-09T18:28:09.618Z,6.70
2023-04-09T18:29:42.335Z,6.30
2023-04-09T18:31:15.184Z,5.83
2023-04-09T18:32:49.066Z,5.60
2023-04-09T18:34:22.394Z,5.70
2023-04-09T18:35:55.273Z,5.60
2023-04-09T18:37:27.990Z,6.20
2023-04-09T18:39:00.698Z,5.93
2023-04-09T18:40:41.583Z,5.37
2023-04-09T18:42:14.602Z,6.10
2023-04-09T18:43:48.278Z,5.83
2023-04-09T18:45:21.182Z,5.67
2023-04-09T18:46:53.940Z,5.90
2023-04-09T18:48:26.806Z,6.17
2023-04-09T18:49:59.505Z,5.90
2023-04-09T18:51:32.836Z,5.70
2023-04-09T18:53:06.572Z,5.47
2023-04-09T18:54:39.303Z,5.47
2023-04-09T18:56:13.404Z,5.47
2023-04-09T18:57:46.101Z,5.73
2023-04-09T18:59:18.833Z,5.63
2023-04-09T19:00:51.668Z,5.57
2023-04-09T19:02:24.670Z,5.53
2023-04-09T19:03:57.594Z,5.70
2023-04-09T19:05:31.572Z,5.03
2023-04-09T19:07:04.372Z,5.43
2023-04-09T19:08:38.384Z,5.30
2023-04-09T19:10:11.566Z,5.67
2023-04-09T19:11:45.800Z,5.70
2023-04-09T19:13:18.586Z,5.60
2023-04-09T19:14:51.292Z,5.33
2023-04-09T19:16:24.102Z,5.40
2023-04-09T19:17:57.557Z,5.23
2023-04-09T19:19:30.396Z,5.70
2023-04-09T19:21:03.294Z,5.43
2023-04-09T19:22:36.683Z,5.20
2023-04-09T19:24:09.409Z,5.47
2023-04-09T19:25:42.784Z,5.87
2023-04-09T19:27:18.012Z,5.80
2023-04-09T19:28:50.792Z,5.60
2023-04-09T19:30:23.898Z,5.57
2023-04-09T19:31:57.182Z,5.67
2023-04-09T19:33:30.064Z,6.27
2023-04-09T19:35:02.834Z,6.17
2023-04-09T19:36:35.625Z,6.03
2023-04-09T19:38:08.776Z,5.30
2023-04-09T19:39:41.550Z,5.40
2023-04-09T19:41:14.555Z,5.23
2023-04-09T19:42:48.613Z,5.53
2023-04-09T19:44:21.439Z,5.90
2023-04-09T19:45:55.001Z,5.80
2023-04-09T19:47:28.281Z,5.90
2023-04-09T19:49:01.006Z,6.23
2023-04-09T19:50:35.907Z,5.83
2023-04-09T19:52:09.160Z,5.80
2023-04-09T19:53:43.315Z,5.43
2023-04-09T19:55:17.111Z,6.07
2023-04-09T19:56:49.815Z,5.70
2023-04-09T19:58:24.045Z,6.10
2023-04-09T19:59:56.857Z,5.87
2023-04-09T20:01:29.729Z,6.00
2023-04-09T20:03:03.177Z,6.10
2023-04-09T20:04:36.412Z,6.50
2023-04-09T20:06:10.777Z,6.27
2023-04-09T20:07:44.247Z,6.50
2023-04-09T20:09:18.081Z,6.17
2023-04-09T20:10:50.961Z,6.83
2023-04-09T20:12:28.196Z,6.80
2023-04-09T20:14:02.543Z,6.67
2023-04-09T20:15:35.370Z,6.27
2023-04-09T20:17:10.572Z,6.13
2023-04-09T20:18:43.314Z,6.37
2023-04-09T20:20:19.591Z,6.77
2023-04-09T20:21:52.702Z,6.20
2023-04-09T20:23:25.525Z,7.07
2023-04-09T20:24:59.800Z,6.83
2023-04-09T20:26:32.550Z,7.17
2023-04-09T20:28:05.474Z,7.17
2023-04-09T20:29:39.692Z,7.13
2023-04-09T20:31:12.487Z,6.97
2023-04-09T20:32:45.293Z,7.00
2023-04-09T20:34:18.053Z,6.70